Time;durP1;ratioP1;P1;durP2;ratioP2;P2;SDS_P1;SDS_P2;PMS_P1;PMS_P2;Temp;Humidity;BMP_temperature;BMP_pressure;BME280_temperature;BME280_humidity;BME280_pressure;Samples;Min_cycle;Max_cycle;Signal;HPM_P1;HPM_P2
2023/04/15 00:01:37;;;;;;;3.03;2.80;;;4.60;99.90;;;;;;5014336;28;20512;-53
2023/04/15 00:04:04;;;;;;;4.37;3.33;;;4.70;99.90;;;;;;5023288;28;20461;-53
2023/04/15 00:06:31;;;;;;;5.60;3.80;;;4.80;99.90;;;;;;5025637;28;20953;-52
2023/04/15 00:08:58;;;;;;;5.87;4.00;;;4.80;99.90;;;;;;5026930;28;20444;-52
2023/04/15 00:11:27;;;;;;;3.00;2.70;;;4.80;99.90;;;;;;5027827;28;20867;-53
2023/04/15 00:13:53;;;;;;;2.33;2.13;;;4.70;99.90;;;;;;5022732;28;21054;-53
2023/04/15 00:16:20;;;;;;;4.40;2.30;;;4.80;99.90;;;;;;5026290;28;20816;-54
2023/04/15 00:18:47;;;;;;;3.67;2.40;;;4.80;99.90;;;;;;5027387;28;20517;-53
2023/04/15 00:21:15;;;;;;;2.70;1.87;;;4.90;99.90;;;;;;5023281;28;20447;-54
2023/04/15 00:23:41;;;;;;;2.50;2.17;;;4.90;99.90;;;;;;5026240;28;20545;-54
2023/04/15 00:26:08;;;;;;;2.20;1.80;;;4.80;99.90;;;;;;5027424;28;20510;-52
2023/04/15 00:28:37;;;;;;;2.23;2.00;;;4.70;99.90;;;;;;5025678;28;20446;-52
2023/04/15 00:31:04;;;;;;;5.37;2.30;;;4.70;99.90;;;;;;5016333;28;20451;-52
2023/04/15 00:33:31;;;;;;;3.40;3.10;;;4.60;99.90;;;;;;5016460;28;20485;-55
2023/04/15 00:35:58;;;;;;;3.27;2.97;;;4.70;99.90;;;;;;5013229;28;20454;-54
2023/04/15 00:38:25;;;;;;;3.03;2.23;;;4.70;99.90;;;;;;5015395;28;20950;-51
2023/04/15 00:40:52;;;;;;;2.70;2.50;;;4.80;99.90;;;;;;5015692;28;20824;-53
2023/04/15 00:43:19;;;;;;;2.33;2.13;;;4.90;99.90;;;;;;5015572;28;20489;-52
2023/04/15 00:45:47;;;;;;;2.37;2.10;;;4.90;99.90;;;;;;5015455;28;20465;-53
2023/04/15 00:48:16;;;;;;;1.97;1.60;;;4.90;99.90;;;;;;5014237;28;20860;-52
2023/04/15 00:50:43;;;;;;;2.50;2.30;;;4.80;99.90;;;;;;5012253;28;21032;-52
2023/04/15 00:53:10;;;;;;;2.43;2.07;;;4.90;99.90;;;;;;5012689;28;20520;-53
2023/04/15 00:55:38;;;;;;;3.80;2.00;;;4.90;99.90;;;;;;5014055;28;20523;-53
2023/04/15 00:58:05;;;;;;;5.03;2.87;;;4.90;99.90;;;;;;5014372;28;20475;-53
2023/04/15 01:00:32;;;;;;;2.30;2.00;;;4.90;99.90;;;;;;5014785;28;20442;-53
2023/04/15 01:03:00;;;;;;;2.40;2.20;;;4.90;99.90;;;;;;5011931;28;21005;-53
2023/04/15 01:05:28;;;;;;;2.70;2.37;;;4.90;99.90;;;;;;5014996;28;20501;-52
2023/04/15 01:07:55;;;;;;;2.43;1.80;;;5.00;99.90;;;;;;5014904;28;20451;-52
2023/04/15 01:10:22;;;;;;;2.10;1.90;;;5.00;99.90;;;;;;5014072;28;20521;-53
2023/04/15 01:12:50;;;;;;;2.47;1.90;;;4.90;99.90;;;;;;5014865;28;20563;-52
2023/04/15 01:15:17;;;;;;;1.90;1.30;;;5.00;99.90;;;;;;5015223;28;20570;-51
2023/04/15 01:17:45;;;;;;;3.30;2.10;;;5.00;99.90;;;;;;5014625;28;20450;-53
2023/04/15 01:20:14;;;;;;;4.23;3.10;;;5.00;99.90;;;;;;5015421;28;20934;-52
2023/04/15 01:22:41;;;;;;;3.80;2.23;;;5.00;99.90;;;;;;5012496;28;20459;-53
2023/04/15 01:25:12;;;;;;;2.47;1.90;;;4.90;99.90;;;;;;5014841;28;20473;-52
2023/04/15 01:27:42;;;;;;;2.97;2.67;;;4.80;99.90;;;;;;5012529;28;20491;-52
2023/04/15 01:30:10;;;;;;;3.43;2.93;;;4.60;99.90;;;;;;5015356;28;20442;-51
2023/04/15 01:32:37;;;;;;;3.30;2.20;;;4.70;99.90;;;;;;5014701;28;21027;-53
2023/04/15 01:35:05;;;;;;;3.07;2.77;;;4.90;99.90;;;;;;5015847;28;20447;-52
2023/04/15 01:37:32;;;;;;;3.30;2.50;;;4.90;99.90;;;;;;5012920;28;20490;-52
2023/04/15 01:39:59;;;;;;;2.20;1.93;;;4.80;99.90;;;;;;5012160;28;20435;-52
2023/04/15 01:42:27;;;;;;;1.70;1.60;;;4.60;99.90;;;;;;5014689;28;20439;-54
2023/04/15 01:44:55;;;;;;;1.83;1.23;;;4.50;99.90;;;;;;5013602;28;20469;-51
2023/04/15 01:47:22;;;;;;;2.17;1.00;;;4.40;99.90;;;;;;5012609;28;20497;-53
2023/04/15 01:49:49;;;;;;;3.20;1.40;;;4.40;99.90;;;;;;5012859;28;20509;-54
2023/04/15 01:52:18;;;;;;;1.60;1.00;;;4.40;99.90;;;;;;5013017;28;20510;-52
2023/04/15 01:54:45;;;;;;;4.23;1.77;;;4.60;99.90;;;;;;5012795;28;20476;-53
2023/04/15 01:57:12;;;;;;;1.90;1.70;;;4.70;99.90;;;;;;5012043;28;20447;-53
2023/04/15 01:59:39;;;;;;;1.60;1.40;;;4.70;99.90;;;;;;5011268;28;20465;-52
2023/04/15 02:02:08;;;;;;;4.00;1.50;;;4.70;99.90;;;;;;5014648;28;20963;-52
2023/04/15 02:04:35;;;;;;;2.47;1.87;;;4.80;99.90;;;;;;5015398;28;21039;-52
2023/04/15 02:07:02;;;;;;;1.80;1.70;;;4.80;99.90;;;;;;5014243;28;20853;-52
2023/04/15 02:09:29;;;;;;;2.10;1.90;;;4.80;99.90;;;;;;5014435;28;20870;-51
2023/04/15 02:11:56;;;;;;;4.93;2.13;;;4.70;99.90;;;;;;5014910;28;20489;-53
2023/04/15 02:14:22;;;;;;;1.77;1.33;;;4.80;99.90;;;;;;5015377;28;20486;-52
2023/04/15 02:16:49;;;;;;;2.17;1.97;;;4.70;99.90;;;;;;5014886;28;20879;-52
2023/04/15 02:19:18;;;;;;;3.90;3.60;;;4.60;99.90;;;;;;5014960;28;20451;-52
2023/04/15 02:21:45;;;;;;;3.50;2.60;;;4.50;99.90;;;;;;5013763;28;20503;-52
2023/04/15 02:24:12;;;;;;;4.40;2.87;;;4.50;99.90;;;;;;5014027;28;20473;-51
2023/04/15 02:26:38;;;;;;;2.30;1.70;;;4.60;99.90;;;;;;5014129;28;20882;-52
2023/04/15 02:29:05;;;;;;;2.17;1.77;;;4.70;99.90;;;;;;5014899;28;20525;-52
2023/04/15 02:31:35;;;;;;;1.57;1.40;;;4.70;99.90;;;;;;5015035;28;20480;-52
2023/04/15 02:34:03;;;;;;;1.77;1.20;;;4.80;99.90;;;;;;5014351;28;20514;-52
2023/04/15 02:36:33;;;;;;;1.67;1.43;;;4.80;99.90;;;;;;5014308;28;20542;-52
2023/04/15 02:39:00;;;;;;;3.27;1.90;;;4.70;99.90;;;;;;5014323;28;20466;-52
2023/04/15 02:41:27;;;;;;;1.87;1.20;;;4.70;99.90;;;;;;5014903;28;20479;-54
2023/04/15 02:43:54;;;;;;;2.43;1.90;;;4.70;99.90;;;;;;5014158;28;20462;-52
2023/04/15 02:46:21;;;;;;;2.20;1.40;;;4.80;99.90;;;;;;5014594;28;20450;-54
2023/04/15 02:48:48;;;;;;;1.20;0.97;;;4.80;99.90;;;;;;5014417;28;20966;-53
2023/04/15 02:51:18;;;;;;;1.70;1.50;;;4.80;99.90;;;;;;5014287;28;20891;-52
2023/04/15 02:53:47;;;;;;;2.13;1.40;;;4.80;99.90;;;;;;5014702;28;20493;-53
2023/04/15 02:56:15;;;;;;;1.57;1.27;;;4.80;99.90;;;;;;5014097;28;20999;-52
2023/04/15 02:58:44;;;;;;;1.37;1.03;;;4.70;99.90;;;;;;5013807;28;20458;-53
2023/04/15 03:01:11;;;;;;;2.50;1.20;;;4.50;99.90;;;;;;5014526;28;20458;-52
2023/04/15 03:03:38;;;;;;;2.80;1.53;;;4.50;99.90;;;;;;5014214;28;20462;-54
2023/04/15 03:06:05;;;;;;;1.97;1.40;;;4.50;99.90;;;;;;5014580;28;20938;-52
2023/04/15 03:08:32;;;;;;;2.80;1.80;;;4.70;99.90;;;;;;5014447;28;20455;-54
2023/04/15 03:11:01;;;;;;;2.90;1.97;;;4.70;99.90;;;;;;5014876;28;21012;-52
2023/04/15 03:13:28;;;;;;;1.80;1.57;;;4.80;99.90;;;;;;5014993;28;20481;-52
2023/04/15 03:15:55;;;;;;;2.70;1.90;;;4.80;99.90;;;;;;5013725;28;20874;-53
2023/04/15 03:18:22;;;;;;;3.40;1.97;;;4.40;99.90;;;;;;5021989;28;20429;-52
2023/04/15 03:20:49;;;;;;;2.03;1.83;;;4.30;99.90;;;;;;5031882;23;20493;-55
2023/04/15 03:23:16;;;;;;;2.83;1.80;;;4.10;99.90;;;;;;4999906;28;20434;-53
2023/04/15 03:25:44;;;;;;;4.00;1.83;;;4.20;99.90;;;;;;5000518;28;20507;-54
2023/04/15 03:28:12;;;;;;;2.47;1.80;;;4.30;99.90;;;;;;5002292;28;20516;-54
2023/04/15 03:30:39;;;;;;;3.60;2.00;;;4.20;99.90;;;;;;5001067;28;20539;-53
2023/04/15 03:33:07;;;;;;;2.30;1.83;;;4.20;99.90;;;;;;5001423;28;20532;-54
2023/04/15 03:35:34;;;;;;;2.10;1.57;;;4.30;99.90;;;;;;5000847;28;20444;-54
2023/04/15 03:38:01;;;;;;;2.27;1.97;;;4.40;99.90;;;;;;5003464;28;20529;-54
2023/04/15 03:40:28;;;;;;;1.97;1.77;;;4.50;99.90;;;;;;5005644;28;20550;-55
2023/04/15 03:42:55;;;;;;;2.17;1.20;;;4.50;99.90;;;;;;5001017;28;20527;-53
2023/04/15 03:45:23;;;;;;;1.27;1.03;;;4.50;99.90;;;;;;5004293;28;20447;-53
2023/04/15 03:47:50;;;;;;;3.20;1.90;;;4.60;99.90;;;;;;5005067;28;20526;-53
2023/04/15 03:50:17;;;;;;;1.40;1.00;;;4.60;99.90;;;;;;5003410;28;20541;-53
2023/04/15 03:52:44;;;;;;;3.60;1.33;;;4.60;99.90;;;;;;5003836;28;20446;-54
2023/04/15 03:55:11;;;;;;;1.80;1.50;;;4.50;99.90;;;;;;5005144;28;20509;-54
2023/04/15 03:57:38;;;;;;;2.13;1.40;;;4.50;99.90;;;;;;5004008;28;20537;-53
2023/04/15 04:00:06;;;;;;;3.30;1.73;;;4.60;99.90;;;;;;5003655;28;20486;-53
2023/04/15 04:02:35;;;;;;;3.03;1.83;;;4.60;99.90;;;;;;5005314;28;20517;-54
2023/04/15 04:05:02;;;;;;;3.20;2.13;;;4.60;99.90;;;;;;5004347;28;20466;-54
2023/04/15 04:07:28;;;;;;;2.80;2.17;;;4.60;99.90;;;;;;5003149;28;20529;-51
2023/04/15 04:09:57;;;;;;;2.07;1.87;;;4.70;99.90;;;;;;5000543;28;20552;-54
2023/04/15 04:12:24;;;;;;;3.10;1.90;;;4.60;99.90;;;;;;5003563;28;21053;-53
2023/04/15 04:14:51;;;;;;;2.77;2.10;;;4.70;99.90;;;;;;5005085;28;20506;-54
2023/04/15 04:17:18;;;;;;;4.77;2.67;;;4.70;99.90;;;;;;5003112;28;20444;-54
2023/04/15 04:19:46;;;;;;;1.97;1.77;;;4.60;99.90;;;;;;5003234;28;20997;-54
2023/04/15 04:22:13;;;;;;;2.67;1.63;;;4.70;99.90;;;;;;5004750;28;20438;-53
2023/04/15 04:24:40;;;;;;;2.40;1.40;;;4.80;99.90;;;;;;5003463;28;20455;-55
2023/04/15 04:27:06;;;;;;;1.80;1.40;;;4.80;99.90;;;;;;5000284;28;20475;-54
2023/04/15 04:29:33;;;;;;;4.20;1.90;;;4.80;99.90;;;;;;4994259;28;20550;-54
2023/04/15 04:32:00;;;;;;;2.37;1.50;;;4.80;99.90;;;;;;4994287;28;20477;-54
2023/04/15 04:34:27;;;;;;;3.40;2.60;;;4.70;99.90;;;;;;4994168;28;20514;-54
2023/04/15 04:36:55;;;;;;;2.60;2.27;;;4.50;99.90;;;;;;4993862;28;21036;-54
2023/04/15 04:39:22;;;;;;;3.30;2.73;;;4.50;99.90;;;;;;4993499;28;20479;-54
2023/04/15 04:41:51;;;;;;;4.10;3.17;;;4.40;99.90;;;;;;4993708;28;20474;-54
2023/04/15 04:44:17;;;;;;;4.13;3.80;;;4.40;99.90;;;;;;4998640;28;20987;-54
2023/04/15 04:46:44;;;;;;;3.50;2.40;;;4.40;99.90;;;;;;5012126;28;20537;-54
2023/04/15 04:49:11;;;;;;;4.67;3.53;;;4.30;99.90;;;;;;5012667;28;20898;-54
2023/04/15 04:51:38;;;;;;;16.97;12.90;;;4.40;99.90;;;;;;5013513;28;20876;-53
2023/04/15 04:54:07;;;;;;;7.90;5.87;;;4.40;99.90;;;;;;5013299;28;20519;-54
2023/04/15 04:56:34;;;;;;;4.90;4.30;;;4.50;99.90;;;;;;5013271;28;20508;-54
2023/04/15 04:59:01;;;;;;;4.13;2.63;;;4.60;99.90;;;;;;5013115;28;20458;-54
2023/04/15 05:01:28;;;;;;;2.60;2.40;;;4.60;99.90;;;;;;5013081;28;20597;-54
2023/04/15 05:03:55;;;;;;;2.00;1.80;;;4.70;99.90;;;;;;5013262;28;20952;-54
2023/04/15 05:06:22;;;;;;;2.97;1.60;;;4.80;99.90;;;;;;5013118;28;20512;-54
2023/04/15 05:08:49;;;;;;;4.40;2.30;;;4.80;99.90;;;;;;5013093;28;20530;-53
2023/04/15 05:11:17;;;;;;;3.33;3.03;;;4.70;99.90;;;;;;5012859;28;20570;-54
2023/04/15 05:13:44;;;;;;;6.20;3.60;;;4.70;99.90;;;;;;5013305;28;20546;-54
2023/04/15 05:16:11;;;;;;;4.20;3.80;;;4.70;99.90;;;;;;5012608;28;20458;-54
2023/04/15 05:18:38;;;;;;;3.20;2.90;;;4.70;99.90;;;;;;5013021;28;20497;-54
2023/04/15 05:21:05;;;;;;;3.30;2.53;;;4.80;99.90;;;;;;5012466;28;20514;-54
2023/04/15 05:23:32;;;;;;;2.87;2.63;;;4.90;99.90;;;;;;5012737;28;20450;-54
2023/04/15 05:25:59;;;;;;;3.20;1.93;;;5.00;99.90;;;;;;5012557;28;20446;-53
2023/04/15 05:28:27;;;;;;;2.77;2.57;;;4.90;99.90;;;;;;5012604;28;20442;-55
2023/04/15 05:30:55;;;;;;;3.00;2.60;;;4.80;99.90;;;;;;5012464;28;20506;-54
2023/04/15 05:33:22;;;;;;;3.00;2.40;;;4.90;99.90;;;;;;5012473;28;20441;-54
2023/04/15 05:35:49;;;;;;;3.23;2.23;;;4.90;99.90;;;;;;5012461;28;20576;-54
2023/04/15 05:38:16;;;;;;;3.80;2.30;;;4.90;99.90;;;;;;5011839;28;20460;-54
2023/04/15 05:40:43;;;;;;;2.63;2.43;;;4.90;99.90;;;;;;5012424;28;20513;-54
2023/04/15 05:43:10;;;;;;;3.03;2.70;;;5.00;99.90;;;;;;5012370;28;20471;-54
2023/04/15 05:45:38;;;;;;;3.43;3.13;;;5.00;99.90;;;;;;5012050;28;21006;-54
2023/04/15 05:48:05;;;;;;;2.57;2.23;;;5.10;99.90;;;;;;5011764;28;20486;-53
2023/04/15 05:50:32;;;;;;;4.20;3.77;;;5.10;99.90;;;;;;5011713;28;20550;-55
2023/04/15 05:52:59;;;;;;;4.13;3.73;;;5.20;99.90;;;;;;5012137;28;20493;-54
2023/04/15 05:55:26;;;;;;;7.23;4.60;;;5.10;99.90;;;;;;5012205;28;20992;-54
2023/04/15 05:57:53;;;;;;;9.20;6.00;;;5.10;99.90;;;;;;5011261;28;20549;-52
2023/04/15 06:00:20;;;;;;;11.80;7.60;;;5.10;99.90;;;;;;5012242;28;20501;-53
2023/04/15 06:02:48;;;;;;;8.27;7.20;;;5.10;99.90;;;;;;5011481;28;20453;-52
2023/04/15 06:05:15;;;;;;;7.53;4.67;;;5.20;99.90;;;;;;5012062;28;20546;-54
2023/04/15 06:07:42;;;;;;;3.83;3.53;;;5.20;99.90;;;;;;5012049;28;20534;-54
2023/04/15 06:10:10;;;;;;;5.57;4.40;;;5.10;99.90;;;;;;5011945;28;20474;-55
2023/04/15 06:12:37;;;;;;;6.00;5.27;;;5.20;99.90;;;;;;4999551;28;20890;-54
2023/04/15 06:15:05;;;;;;;6.03;5.40;;;5.20;99.90;;;;;;4991935;28;20508;-54
2023/04/15 06:17:32;;;;;;;4.90;4.40;;;5.30;99.90;;;;;;4992519;28;20458;-54
2023/04/15 06:20:00;;;;;;;5.70;4.30;;;5.30;99.90;;;;;;4992197;28;20591;-54
2023/04/15 06:22:27;;;;;;;4.20;3.80;;;5.30;99.90;;;;;;4991716;28;20555;-54
2023/04/15 06:24:54;;;;;;;8.20;3.83;;;5.30;99.90;;;;;;4992206;28;20817;-54
2023/04/15 06:27:22;;;;;;;4.50;4.10;;;5.30;99.90;;;;;;4991831;28;20827;-53
2023/04/15 06:29:49;;;;;;;3.60;3.07;;;5.30;99.90;;;;;;4991769;28;20471;-54
2023/04/15 06:32:16;;;;;;;3.03;2.80;;;5.30;99.90;;;;;;4992122;28;20532;-53
2023/04/15 06:34:42;;;;;;;2.63;2.43;;;5.40;99.90;;;;;;4991676;28;21014;-54
2023/04/15 06:37:14;;;;;;;3.77;3.37;;;5.30;99.90;;;;;;4991320;28;20534;-53
2023/04/15 06:39:42;;;;;;;5.70;3.50;;;5.40;99.90;;;;;;4992037;28;20464;-53
2023/04/15 06:42:09;;;;;;;5.80;3.30;;;5.40;99.90;;;;;;4991545;28;20535;-53
2023/04/15 06:44:37;;;;;;;4.30;3.90;;;5.50;99.90;;;;;;4992330;28;20535;-55
2023/04/15 06:47:03;;;;;;;3.83;3.43;;;5.50;99.90;;;;;;4991654;28;20448;-53
2023/04/15 06:49:30;;;;;;;3.93;3.50;;;5.60;99.90;;;;;;4991618;28;20550;-53
2023/04/15 06:51:57;;;;;;;2.97;2.67;;;5.60;99.90;;;;;;4991845;28;20535;-54
2023/04/15 06:54:26;;;;;;;3.30;3.00;;;5.60;99.90;;;;;;4991619;28;20540;-53
2023/04/15 06:56:53;;;;;;;3.30;2.60;;;5.60;99.90;;;;;;4990941;28;20515;-53
2023/04/15 06:59:20;;;;;;;3.27;2.53;;;5.70;99.90;;;;;;4991423;28;20475;-54
2023/04/15 07:01:47;;;;;;;3.90;3.20;;;5.70;99.90;;;;;;4991639;28;20538;-54
2023/04/15 07:04:14;;;;;;;3.80;3.20;;;5.60;99.90;;;;;;4991649;28;20528;-54
2023/04/15 07:06:41;;;;;;;3.90;2.77;;;5.60;99.90;;;;;;4991356;28;20459;-54
2023/04/15 07:09:07;;;;;;;2.80;2.60;;;5.60;99.90;;;;;;4992819;28;20488;-54
2023/04/15 07:11:36;;;;;;;4.33;2.23;;;5.70;99.90;;;;;;4994889;28;20998;-53
2023/04/15 07:14:03;;;;;;;2.70;2.23;;;5.80;99.90;;;;;;4994032;28;20447;-53
2023/04/15 07:16:30;;;;;;;3.07;2.70;;;5.90;99.90;;;;;;4993705;28;20577;-55
2023/04/15 07:18:57;;;;;;;3.07;2.10;;;5.90;99.90;;;;;;4994349;28;20447;-54
2023/04/15 07:21:24;;;;;;;5.37;3.40;;;6.00;99.90;;;;;;4993490;28;20507;-53
2023/04/15 07:23:51;;;;;;;3.33;2.60;;;6.00;99.90;;;;;;4994145;28;20442;-53
2023/04/15 07:26:18;;;;;;;3.10;2.33;;;6.10;99.90;;;;;;4992057;28;20535;-53
2023/04/15 07:28:46;;;;;;;6.63;2.63;;;6.20;99.90;;;;;;4993796;28;20547;-54
2023/04/15 07:31:13;;;;;;;2.80;2.40;;;6.20;99.90;;;;;;4995120;28;20836;-53
2023/04/15 07:33:40;;;;;;;3.27;2.97;;;6.20;99.90;;;;;;4994888;28;20456;-54
2023/04/15 07:36:08;;;;;;;4.77;2.97;;;6.20;99.90;;;;;;4995159;28;20476;-53
2023/04/15 07:38:35;;;;;;;3.73;3.13;;;6.20;99.90;;;;;;4994954;28;20542;-53
2023/04/15 07:41:02;;;;;;;3.17;2.90;;;6.20;99.90;;;;;;4994870;28;20982;-53
2023/04/15 07:43:29;;;;;;;3.33;3.00;;;6.30;99.90;;;;;;4994849;28;20456;-53
2023/04/15 07:45:57;;;;;;;3.00;2.67;;;6.40;99.90;;;;;;4994169;28;20479;-54
2023/04/15 07:48:24;;;;;;;2.90;2.50;;;6.50;99.90;;;;;;4994927;28;20571;-54
2023/04/15 07:50:51;;;;;;;2.90;1.87;;;6.40;99.90;;;;;;4994213;28;20479;-54
2023/04/15 07:53:18;;;;;;;2.87;2.17;;;6.50;99.90;;;;;;4994613;28;20443;-54
2023/04/15 07:55:45;;;;;;;3.40;2.10;;;6.60;99.90;;;;;;4993998;28;20571;-53
2023/04/15 07:58:12;;;;;;;4.07;2.57;;;6.60;99.90;;;;;;4993435;28;20444;-54
2023/04/15 08:00:39;;;;;;;4.50;3.00;;;6.50;99.90;;;;;;4994454;28;20556;-54
2023/04/15 08:03:07;;;;;;;3.77;3.00;;;6.60;99.90;;;;;;4998854;28;20497;-53
2023/04/15 08:05:34;;;;;;;5.50;3.07;;;6.60;99.90;;;;;;5003401;28;20721;-52
2023/04/15 08:08:01;;;;;;;5.00;2.10;;;6.60;99.90;;;;;;5002115;28;20528;-54
2023/04/15 08:10:30;;;;;;;2.93;2.47;;;6.60;99.90;;;;;;5001130;28;20534;-52
2023/04/15 08:12:57;;;;;;;3.40;2.20;;;6.70;99.90;;;;;;4993373;28;20452;-54
2023/04/15 08:15:24;;;;;;;2.50;1.80;;;6.70;99.90;;;;;;4993922;28;20479;-53
2023/04/15 08:17:51;;;;;;;2.87;2.27;;;6.70;99.90;;;;;;4993796;28;20532;-54
2023/04/15 08:20:19;;;;;;;2.67;2.37;;;6.80;99.90;;;;;;4993269;28;21003;-53
2023/04/15 08:22:50;;;;;;;2.90;2.33;;;6.70;99.90;;;;;;4991131;28;20490;-53
2023/04/15 08:25:17;;;;;;;2.43;2.00;;;6.70;99.90;;;;;;4994101;28;20440;-55
2023/04/15 08:27:44;;;;;;;3.00;2.70;;;6.80;99.90;;;;;;4993263;28;20452;-54
2023/04/15 08:30:12;;;;;;;2.97;2.67;;;6.90;99.90;;;;;;4993677;28;20800;-53
2023/04/15 08:32:39;;;;;;;2.53;2.33;;;7.00;99.90;;;;;;4993765;28;20478;-54
2023/04/15 08:35:06;;;;;;;4.03;2.30;;;7.00;99.90;;;;;;4993430;28;20583;-53
2023/04/15 08:37:35;;;;;;;3.03;2.27;;;7.00;99.90;;;;;;4993574;28;20947;-54
2023/04/15 08:40:01;;;;;;;2.23;2.03;;;7.10;99.90;;;;;;4993096;28;20879;-53
2023/04/15 08:42:31;;;;;;;3.37;3.07;;;7.10;99.90;;;;;;4993156;28;20459;-54
2023/04/15 08:45:00;;;;;;;3.93;2.13;;;7.10;99.90;;;;;;4993466;28;20443;-54
2023/04/15 08:47:30;;;;;;;3.50;1.80;;;7.10;99.90;;;;;;4990724;28;20544;-53
2023/04/15 08:49:58;;;;;;;4.83;2.40;;;7.20;99.90;;;;;;4992539;28;20460;-53
2023/04/15 08:52:25;;;;;;;3.00;2.13;;;7.10;99.90;;;;;;4993641;28;20552;-54
2023/04/15 08:54:57;;;;;;;3.23;2.50;;;7.20;99.90;;;;;;5003009;28;20446;-53
2023/04/15 08:57:26;;;;;;;2.60;2.40;;;7.30;99.90;;;;;;5003155;28;20475;-52
2023/04/15 08:59:53;;;;;;;2.80;2.20;;;7.40;99.90;;;;;;5003109;28;20464;-54
2023/04/15 09:02:20;;;;;;;3.10;2.40;;;7.50;99.90;;;;;;5002375;28;20638;-54
2023/04/15 09:04:47;;;;;;;2.23;2.03;;;7.60;99.90;;;;;;4999303;28;20461;-54
2023/04/15 09:07:15;;;;;;;2.77;2.10;;;7.60;99.90;;;;;;5002188;28;20569;-53
2023/04/15 09:09:42;;;;;;;2.77;2.57;;;7.70;99.90;;;;;;5003774;28;20490;-55
2023/04/15 09:12:12;;;;;;;2.50;1.57;;;7.80;99.90;;;;;;5001470;28;20444;-54
2023/04/15 09:14:41;;;;;;;3.70;2.43;;;7.80;99.90;;;;;;5002030;28;20471;-54
2023/04/15 09:17:10;;;;;;;2.40;2.20;;;7.90;99.90;;;;;;4998709;28;20472;-54
2023/04/15 09:19:37;;;;;;;3.73;1.80;;;7.80;99.90;;;;;;5028306;23;20495;-84
2023/04/15 09:22:04;;;;;;;3.50;2.60;;;7.70;99.90;;;;;;5048088;28;20770;-84
2023/04/15 09:24:37;;;;;;;3.07;1.80;;;7.80;99.90;;;;;;5051597;28;20454;-85
2023/04/15 09:27:05;;;;;;;3.97;3.00;;;8.00;99.90;;;;;;5036261;28;20451;-84
2023/04/15 09:29:33;;;;;;;3.20;2.10;;;8.20;99.90;;;;;;5025756;28;20466;-84
2023/04/15 09:32:11;;;;;;;2.53;2.07;;;8.30;99.90;;;;;;5023472;28;20501;-84
2023/04/15 09:34:38;;;;;;;2.53;2.30;;;8.10;99.90;;;;;;5064154;22;20493;-53
2023/04/15 09:37:05;;;;;;;2.67;2.00;;;8.20;99.90;;;;;;5051678;28;21032;-54
2023/04/15 09:39:47;;;;;;;3.37;2.80;;;8.30;99.90;;;;;;5051873;28;20869;-53
2023/04/15 09:42:14;;;;;;;3.13;2.43;;;8.30;99.90;;;;;;5051585;28;20442;-52
2023/04/15 09:44:43;;;;;;;2.30;1.80;;;8.30;99.90;;;;;;5050594;28;20521;-53
2023/04/15 09:47:10;;;;;;;1.93;1.83;;;8.20;99.90;;;;;;5052017;28;20482;-52
2023/04/15 09:49:37;;;;;;;2.90;1.80;;;8.20;99.90;;;;;;5051407;28;20481;-52
2023/04/15 09:52:04;;;;;;;3.43;1.80;;;8.20;99.90;;;;;;5050691;28;20501;-54
2023/04/15 09:54:38;;;;;;;1.73;1.50;;;8.30;99.90;;;;;;5050834;28;20465;-52
2023/04/15 09:57:06;;;;;;;2.60;1.90;;;8.30;99.90;;;;;;5050176;28;20589;-54
2023/04/15 09:59:33;;;;;;;2.60;2.07;;;8.30;99.90;;;;;;5042734;28;20966;-53
2023/04/15 10:02:04;;;;;;;4.00;1.93;;;8.40;99.90;;;;;;5050347;28;20437;-51
2023/04/15 10:04:35;;;;;;;4.50;2.43;;;8.30;99.90;;;;;;5051721;28;20438;-51
2023/04/15 10:07:03;;;;;;;5.30;2.10;;;8.20;99.90;;;;;;5052330;28;20481;-55
2023/04/15 10:09:32;;;;;;;3.47;3.00;;;8.10;99.90;;;;;;5052059;28;20975;-53
2023/04/15 10:12:00;;;;;;;3.10;2.60;;;7.90;99.90;;;;;;5051557;28;20932;-50
2023/04/15 10:14:32;;;;;;;2.97;2.67;;;7.80;99.90;;;;;;5051907;28;20928;-53
2023/04/15 10:17:04;;;;;;;3.43;3.13;;;7.70;99.90;;;;;;5052439;28;20816;-50
2023/04/15 10:19:33;;;;;;;3.90;3.10;;;7.60;99.90;;;;;;5051991;28;20524;-53
2023/04/15 10:22:00;;;;;;;3.77;2.40;;;7.60;99.90;;;;;;5051157;28;20442;-52
2023/04/15 10:24:27;;;;;;;2.13;1.70;;;7.80;99.90;;;;;;5050468;28;20445;-54
2023/04/15 10:26:56;;;;;;;2.40;1.30;;;7.80;99.90;;;;;;5050263;28;20481;-54
2023/04/15 10:29:25;;;;;;;3.20;2.03;;;7.80;99.90;;;;;;5050560;28;20450;-53
2023/04/15 10:31:54;;;;;;;2.30;1.90;;;7.80;99.90;;;;;;5050720;28;20468;-52
2023/04/15 10:34:24;;;;;;;3.27;1.70;;;7.80;99.90;;;;;;5050846;28;20457;-54
2023/04/15 10:36:51;;;;;;;1.80;1.33;;;7.80;99.90;;;;;;5049795;28;21177;-53
2023/04/15 10:39:43;;;;;;;2.27;1.47;;;7.80;99.90;;;;;;5050491;28;20456;-54
2023/04/15 10:42:12;;;;;;;4.23;1.43;;;7.80;99.90;;;;;;5050715;28;20544;-57
2023/04/15 10:44:39;;;;;;;1.90;1.53;;;7.80;99.90;;;;;;5050446;28;20473;-54
2023/04/15 10:47:11;;;;;;;4.83;1.10;;;7.80;99.90;;;;;;5050700;28;20445;-53
2023/04/15 10:49:46;;;;;;;2.90;1.20;;;7.80;99.90;;;;;;5050071;28;20452;-55
2023/04/15 10:52:15;;;;;;;1.67;1.20;;;7.90;99.90;;;;;;5050162;28;20532;-53
2023/04/15 10:54:42;;;;;;;1.30;1.00;;;7.90;99.90;;;;;;5050244;28;20450;-54
2023/04/15 10:57:15;;;;;;;3.10;1.77;;;7.80;99.90;;;;;;5047558;28;20477;-53
2023/04/15 11:00:01;;;;;;;3.40;2.07;;;7.90;99.90;;;;;;5045244;28;20457;-53
2023/04/15 11:02:39;;;;;;;2.47;1.77;;;8.00;99.90;;;;;;5047907;28;20499;-54
2023/04/15 11:05:08;;;;;;;3.50;1.13;;;8.00;99.90;;;;;;5048378;28;20537;-54
2023/04/15 11:07:40;;;;;;;1.57;1.40;;;8.00;99.90;;;;;;5047019;28;20437;-55
2023/04/15 11:10:48;;;;;;;1.80;1.30;;;8.00;99.90;;;;;;5049024;28;20457;-53
2023/04/15 11:13:16;;;;;;;2.43;1.73;;;8.10;99.90;;;;;;4999042;28;20489;-53
2023/04/15 11:15:44;;;;;;;1.87;1.30;;;8.20;99.90;;;;;;5047996;28;20822;-54
2023/04/15 11:18:13;;;;;;;2.03;1.80;;;8.10;99.90;;;;;;5048771;28;20446;-54
2023/04/15 11:20:43;;;;;;;4.13;2.83;;;8.20;99.90;;;;;;5049146;28;20501;-55
2023/04/15 11:23:11;;;;;;;2.30;2.10;;;8.20;99.90;;;;;;5048444;28;20548;-53
2023/04/15 11:25:38;;;;;;;3.70;2.33;;;8.20;99.90;;;;;;5048703;28;20445;-53
2023/04/15 11:28:06;;;;;;;3.00;2.20;;;8.20;99.90;;;;;;5048793;28;20968;-53
2023/04/15 11:30:35;;;;;;;1.90;1.30;;;8.20;99.90;;;;;;5050561;28;20474;-54
2023/04/15 11:33:03;;;;;;;3.53;2.47;;;8.10;99.90;;;;;;5050215;28;20811;-52
2023/04/15 11:35:30;;;;;;;2.13;1.93;;;8.10;99.90;;;;;;5049736;28;20521;-53
2023/04/15 11:38:02;;;;;;;4.13;1.90;;;8.20;99.90;;;;;;5048156;28;20511;-53
2023/04/15 11:40:32;;;;;;;2.53;1.60;;;8.30;99.90;;;;;;5048438;28;20469;-51
2023/04/15 11:43:06;;;;;;;2.40;1.37;;;8.30;99.90;;;;;;5049005;28;20548;-52
2023/04/15 11:45:34;;;;;;;3.53;2.60;;;8.30;99.90;;;;;;5048478;28;20465;-52
2023/04/15 11:48:08;;;;;;;6.10;2.20;;;8.40;99.90;;;;;;5047424;28;20496;-51
2023/04/15 11:50:35;;;;;;;4.60;2.27;;;8.30;99.90;;;;;;5046700;28;20949;-51
2023/04/15 11:53:06;;;;;;;2.53;1.63;;;8.30;99.90;;;;;;5041881;28;20469;-52
2023/04/15 11:55:43;;;;;;;2.07;1.87;;;8.30;99.90;;;;;;5050186;28;20441;-54
2023/04/15 11:58:11;;;;;;;2.53;2.23;;;8.30;99.90;;;;;;5044716;28;20443;-52
2023/04/15 12:00:40;;;;;;;3.57;1.80;;;8.40;99.90;;;;;;5051276;28;20489;-53
2023/04/15 12:03:14;;;;;;;2.17;1.70;;;8.40;99.90;;;;;;5051256;28;20438;-54
2023/04/15 12:06:05;;;;;;;3.00;1.53;;;8.50;99.90;;;;;;5050703;28;20952;-53
2023/04/15 12:08:59;;;;;;;2.43;1.57;;;8.40;99.90;;;;;;5050556;28;20532;-54
2023/04/15 12:11:35;;;;;;;2.87;1.40;;;8.40;99.90;;;;;;5050164;28;20493;-55
2023/04/15 12:14:07;;;;;;;2.00;1.80;;;8.40;99.90;;;;;;5050555;28;20540;-53
2023/04/15 12:16:35;;;;;;;2.00;1.63;;;8.50;99.90;;;;;;5050315;28;20556;-53
2023/04/15 12:19:09;;;;;;;3.80;2.10;;;8.50;99.90;;;;;;5050383;28;21023;-53
2023/04/15 12:21:38;;;;;;;2.60;1.70;;;8.60;99.90;;;;;;5051029;28;20552;-55
2023/04/15 12:24:08;;;;;;;3.10;1.57;;;8.60;99.90;;;;;;5051276;28;20588;-54
2023/04/15 12:26:37;;;;;;;6.90;1.87;;;8.70;99.90;;;;;;5050989;28;20883;-53
2023/04/15 12:29:06;;;;;;;2.10;1.53;;;8.60;99.90;;;;;;5044422;28;20450;-53
2023/04/15 12:31:34;;;;;;;2.50;1.70;;;8.50;99.90;;;;;;5050397;28;20828;-51
2023/04/15 12:34:02;;;;;;;2.10;1.90;;;8.50;99.90;;;;;;5050119;28;20458;-56
2023/04/15 12:36:34;;;;;;;1.93;1.63;;;8.40;99.90;;;;;;5050628;28;20582;-52
2023/04/15 12:39:02;;;;;;;2.87;1.63;;;8.50;99.90;;;;;;5050432;28;20454;-53
2023/04/15 12:41:30;;;;;;;2.03;1.37;;;8.50;99.90;;;;;;5051133;28;20493;-52
2023/04/15 12:43:57;;;;;;;3.10;1.53;;;8.50;99.90;;;;;;5050978;28;20915;-53
2023/04/15 12:46:24;;;;;;;2.50;1.30;;;8.50;99.90;;;;;;5050835;28;20837;-56
2023/04/15 12:48:52;;;;;;;2.63;1.20;;;8.50;99.90;;;;;;5049896;28;20810;-55
2023/04/15 12:51:20;;;;;;;1.97;1.30;;;8.60;99.90;;;;;;5049011;28;20485;-54
2023/04/15 12:53:48;;;;;;;1.93;1.43;;;8.70;99.90;;;;;;5048940;28;20450;-54
2023/04/15 12:56:15;;;;;;;1.60;1.20;;;8.70;99.90;;;;;;5049627;28;20477;-54
2023/04/15 12:58:43;;;;;;;2.77;1.63;;;8.70;99.90;;;;;;5049762;28;20940;-53
2023/04/15 13:01:10;;;;;;;2.13;1.47;;;8.70;99.90;;;;;;5049656;28;20921;-53
2023/04/15 13:03:37;;;;;;;2.70;1.40;;;8.80;99.90;;;;;;5049798;28;20521;-52